sensor_id;sensor_type;location;lat;lon;timestamp;temperature;humidity
19966;DHT22;10144;50.874;4.762;2022-08-25T00:00:48;24.20;99.90
19966;DHT22;10144;50.874;4.762;2022-08-25T00:03:15;24.20;99.90
19966;DHT22;10144;50.874;4.762;2022-08-25T00:05:42;24.20;99.90
19966;DHT22;10144;50.874;4.762;2022-08-25T00:08:08;24.10;99.90
19966;DHT22;10144;50.874;4.762;2022-08-25T00:10:36;24.00;99.90
19966;DHT22;10144;50.874;4.762;2022-08-25T00:13:03;23.80;99.90
19966;DHT22;10144;50.874;4.762;2022-08-25T00:15:30;23.80;99.90
19966;DHT22;10144;50.874;4.762;2022-08-25T00:17:58;23.80;99.90
19966;DHT22;10144;50.874;4.762;2022-08-25T00:20:28;23.70;99.90
19966;DHT22;10144;50.874;4.762;2022-08-25T00:22:54;23.70;99.90
19966;DHT22;10144;50.874;4.762;2022-08-25T01:55:58;22.30;99.90
19966;DHT22;10144;50.874;4.762;2022-08-25T01:58:31;22.30;99.90
19966;DHT22;10144;50.874;4.762;2022-08-25T02:00:59;22.40;99.90
19966;DHT22;10144;50.874;4.762;2022-08-25T02:03:28;22.20;99.90
19966;DHT22;10144;50.874;4.762;2022-08-25T02:05:54;22.30;99.90
19966;DHT22;10144;50.874;4.762;2022-08-25T02:08:21;22.20;99.90
19966;DHT22;10144;50.874;4.762;2022-08-25T02:10:50;22.30;99.90
19966;DHT22;10144;50.874;4.762;2022-08-25T02:13:19;22.20;99.90
19966;DHT22;10144;50.874;4.762;2022-08-25T02:15:49;22.20;99.90
19966;DHT22;10144;50.874;4.762;2022-08-25T02:18:17;22.20;99.90
19966;DHT22;10144;50.874;4.762;2022-08-25T02:20:43;22.20;99.90
19966;DHT22;10144;50.874;4.762;2022-08-25T02:23:10;22.20;99.90
19966;DHT22;10144;50.874;4.762;2022-08-25T02:25:37;22.10;99.90
19966;DHT22;10144;50.874;4.762;2022-08-25T02:28:05;22.10;99.90
19966;DHT22;10144;50.874;4.762;2022-08-25T02:30:32;22.00;99.90
19966;DHT22;10144;50.874;4.762;2022-08-25T02:32:58;22.10;99.90
19966;DHT22;10144;50.874;4.762;2022-08-25T02:35:24;22.00;99.90
19966;DHT22;10144;50.874;4.762;2022-08-25T02:37:51;21.90;99.90
19966;DHT22;10144;50.874;4.762;2022-08-25T02:40:19;21.90;99.90
19966;DHT22;10144;50.874;4.762;2022-08-25T03:26:46;22.40;99.90
19966;DHT22;10144;50.874;4.762;2022-08-25T03:29:19;22.30;99.90
19966;DHT22;10144;50.874;4.762;2022-08-25T03:31:47;22.20;99.90
19966;DHT22;10144;50.874;4.762;2022-08-25T03:34:15;22.10;99.90
19966;DHT22;10144;50.874;4.762;2022-08-25T03:36:44;22.10;99.90
19966;DHT22;10144;50.874;4.762;2022-08-25T03:39:12;22.20;99.90
19966;DHT22;10144;50.874;4.762;2022-08-25T03:41:38;22.10;99.90
19966;DHT22;10144;50.874;4.762;2022-08-25T03:44:06;22.00;99.90
19966;DHT22;10144;50.874;4.762;2022-08-25T03:46:36;22.10;99.90
19966;DHT22;10144;50.874;4.762;2022-08-25T03:49:06;22.00;99.90
19966;DHT22;10144;50.874;4.762;2022-08-25T03:51:39;22.00;99.90
19966;DHT22;10144;50.874;4.762;2022-08-25T03:54:06;22.00;99.90
19966;DHT22;10144;50.874;4.762;2022-08-25T03:56:33;22.10;99.90
19966;DHT22;10144;50.874;4.762;2022-08-25T03:58:59;22.10;99.90
19966;DHT22;10144;50.874;4.762;2022-08-25T04:01:25;22.20;99.90
19966;DHT22;10144;50.874;4.762;2022-08-25T04:03:51;22.20;99.90
19966;DHT22;10144;50.874;4.762;2022-08-25T04:06:19;22.20;99.90
19966;DHT22;10144;50.874;4.762;2022-08-25T04:08:45;22.20;99.90
19966;DHT22;10144;50.874;4.762;2022-08-25T04:11:14;22.30;99.90
19966;DHT22;10144;50.874;4.762;2022-08-25T04:13:42;22.50;99.90
19966;DHT22;10144;50.874;4.762;2022-08-25T04:16:14;22.40;99.90
19966;DHT22;10144;50.874;4.762;2022-08-25T04:18:41;22.40;99.90
19966;DHT22;10144;50.874;4.762;2022-08-25T04:21:07;22.20;99.90
19966;DHT22;10144;50.874;4.762;2022-08-25T04:23:36;21.90;99.90
19966;DHT22;10144;50.874;4.762;2022-08-25T04:26:08;21.90;99.90
19966;DHT22;10144;50.874;4.762;2022-08-25T04:28:34;21.90;99.90
19966;DHT22;10144;50.874;4.762;2022-08-25T04:31:00;21.90;99.90
19966;DHT22;10144;50.874;4.762;2022-08-25T04:33:26;21.90;99.90
19966;DHT22;10144;50.874;4.762;2022-08-25T04:35:52;21.80;99.90
19966;DHT22;10144;50.874;4.762;2022-08-25T04:38:17;21.80;99.90
19966;DHT22;10144;50.874;4.762;2022-08-25T04:40:44;21.80;99.90
19966;DHT22;10144;50.874;4.762;2022-08-25T04:43:09;21.70;99.90
19966;DHT22;10144;50.874;4.762;2022-08-25T04:45:37;21.80;99.90
19966;DHT22;10144;50.874;4.762;2022-08-25T04:48:05;21.70;99.90
19966;DHT22;10144;50.874;4.762;2022-08-25T04:50:30;21.70;99.90
19966;DHT22;10144;50.874;4.762;2022-08-25T04:52:56;21.70;99.90
19966;DHT22;10144;50.874;4.762;2022-08-25T04:55:22;21.70;99.90
19966;DHT22;10144;50.874;4.762;2022-08-25T04:57:48;21.70;99.90
19966;DHT22;10144;50.874;4.762;2022-08-25T05:00:14;21.70;99.90
19966;DHT22;10144;50.874;4.762;2022-08-25T05:02:40;21.60;99.90
19966;DHT22;10144;50.874;4.762;2022-08-25T05:05:06;21.60;99.90
19966;DHT22;10144;50.874;4.762;2022-08-25T05:07:32;21.60;99.90
19966;DHT22;10144;50.874;4.762;2022-08-25T05:09:57;21.70;99.90
19966;DHT22;10144;50.874;4.762;2022-08-25T05:12:23;21.70;99.90
19966;DHT22;10144;50.874;4.762;2022-08-25T05:14:51;21.70;99.90
19966;DHT22;10144;50.874;4.762;2022-08-25T05:17:17;21.60;99.90
19966;DHT22;10144;50.874;4.762;2022-08-25T05:19:43;21.60;99.90
19966;DHT22;10144;50.874;4.762;2022-08-25T05:22:10;21.50;99.90
19966;DHT22;10144;50.874;4.762;2022-08-25T05:24:35;21.50;99.90
19966;DHT22;10144;50.874;4.762;2022-08-25T05:27:02;21.50;99.90
19966;DHT22;10144;50.874;4.762;2022-08-25T05:29:28;21.60;99.90
19966;DHT22;10144;50.874;4.762;2022-08-25T05:31:54;21.50;99.90
19966;DHT22;10144;50.874;4.762;2022-08-25T05:34:20;21.50;99.90
19966;DHT22;10144;50.874;4.762;2022-08-25T05:36:56;21.50;99.90
19966;DHT22;10144;50.874;4.762;2022-08-25T05:39:31;21.50;99.90
19966;DHT22;10144;50.874;4.762;2022-08-25T05:41:58;21.60;99.90
19966;DHT22;10144;50.874;4.762;2022-08-25T06:08:04;24.00;99.90
19966;DHT22;10144;50.874;4.762;2022-08-25T06:13:59;24.60;99.90
19966;DHT22;10144;50.874;4.762;2022-08-25T06:19:57;24.70;99.90
19966;DHT22;10144;50.874;4.762;2022-08-25T06:25:53;25.10;99.90
19966;DHT22;10144;50.874;4.762;2022-08-25T06:31:43;25.50;99.90
19966;DHT22;10144;50.874;4.762;2022-08-25T06:37:32;25.70;99.90
19966;DHT22;10144;50.874;4.762;2022-08-25T06:43:20;26.10;99.90
19966;DHT22;10144;50.874;4.762;2022-08-25T06:48:48;26.40;99.90
19966;DHT22;10144;50.874;4.762;2022-08-25T06:54:37;26.30;99.90
19966;DHT22;10144;50.874;4.762;2022-08-25T07:00:26;26.20;99.90
19966;DHT22;10144;50.874;4.762;2022-08-25T07:06:23;25.60;99.90
19966;DHT22;10144;50.874;4.762;2022-08-25T07:12:32;25.60;99.90
19966;DHT22;10144;50.874;4.762;2022-08-25T07:18:20;25.90;99.90
19966;DHT22;10144;50.874;4.762;2022-08-25T07:24:10;26.60;99.90
19966;DHT22;10144;50.874;4.762;2022-08-25T07:29:59;26.70;99.90
19966;DHT22;10144;50.874;4.762;2022-08-25T07:35:47;26.60;99.90
19966;DHT22;10144;50.874;4.762;2022-08-25T07:41:37;27.00;99.90
19966;DHT22;10144;50.874;4.762;2022-08-25T08:39:48;34.10;99.90
19966;DHT22;10144;50.874;4.762;2022-08-25T08:45:49;34.80;99.60
19966;DHT22;10144;50.874;4.762;2022-08-25T08:51:49;35.30;97.80
19966;DHT22;10144;50.874;4.762;2022-08-25T08:57:45;36.00;95.30
19966;DHT22;10144;50.874;4.762;2022-08-25T09:03:46;36.50;93.30
19966;DHT22;10144;50.874;4.762;2022-08-25T09:09:40;36.50;91.80
19966;DHT22;10144;50.874;4.762;2022-08-25T09:22:23;37.70;89.40
19966;DHT22;10144;50.874;4.762;2022-08-25T09:34:57;39.00;79.00
19966;DHT22;10144;50.874;4.762;2022-08-25T09:40:47;39.30;76.60
19966;DHT22;10144;50.874;4.762;2022-08-25T09:43:40;39.40;75.90
19966;DHT22;10144;50.874;4.762;2022-08-25T09:56:13;39.60;72.70
19966;DHT22;10144;50.874;4.762;2022-08-25T10:07:58;40.60;68.60
19966;DHT22;10144;50.874;4.762;2022-08-25T10:13:48;40.60;67.70
19966;DHT22;10144;50.874;4.762;2022-08-25T10:19:39;41.10;66.20
19966;DHT22;10144;50.874;4.762;2022-08-25T10:25:28;40.80;60.60
19966;DHT22;10144;50.874;4.762;2022-08-25T10:31:31;40.90;61.00
19966;DHT22;10144;50.874;4.762;2022-08-25T10:38:02;41.00;60.20
19966;DHT22;10144;50.874;4.762;2022-08-25T11:05:16;41.90;57.10
19966;DHT22;10144;50.874;4.762;2022-08-25T11:30:08;42.10;55.50
19966;DHT22;10144;50.874;4.762;2022-08-25T11:32:51;41.50;53.70
19966;DHT22;10144;50.874;4.762;2022-08-25T11:57:23;39.80;55.50
19966;DHT22;10144;50.874;4.762;2022-08-25T12:16:02;38.70;58.30
19966;DHT22;10144;50.874;4.762;2022-08-25T12:21:54;39.10;59.00
19966;DHT22;10144;50.874;4.762;2022-08-25T12:27:58;39.30;57.10
19966;DHT22;10144;50.874;4.762;2022-08-25T12:40:01;39.40;55.80
19966;DHT22;10144;50.874;4.762;2022-08-25T12:45:51;38.40;58.50
19966;DHT22;10144;50.874;4.762;2022-08-25T12:55:04;37.20;57.50
19966;DHT22;10144;50.874;4.762;2022-08-25T13:01:09;37.40;59.70
19966;DHT22;10144;50.874;4.762;2022-08-25T13:19:41;36.70;58.00
19966;DHT22;10144;50.874;4.762;2022-08-25T13:29:15;36.80;59.40
19966;DHT22;10144;50.874;4.762;2022-08-25T13:32:11;36.40;58.70
19966;DHT22;10144;50.874;4.762;2022-08-25T13:34:50;35.80;59.30
19966;DHT22;10144;50.874;4.762;2022-08-25T13:37:39;35.20;60.00
19966;DHT22;10144;50.874;4.762;2022-08-25T13:40:25;34.90;61.90
19966;DHT22;10144;50.874;4.762;2022-08-25T13:43:05;34.70;62.60
19966;DHT22;10144;50.874;4.762;2022-08-25T13:45:46;34.50;62.00
19966;DHT22;10144;50.874;4.762;2022-08-25T13:48:35;34.70;63.40
19966;DHT22;10144;50.874;4.762;2022-08-25T13:51:25;34.80;61.10
19966;DHT22;10144;50.874;4.762;2022-08-25T13:54:08;34.90;62.50
19966;DHT22;10144;50.874;4.762;2022-08-25T13:56:50;35.30;62.00
19966;DHT22;10144;50.874;4.762;2022-08-25T13:59:28;35.00;61.50
19966;DHT22;10144;50.874;4.762;2022-08-25T14:01:58;34.60;62.00
19966;DHT22;10144;50.874;4.762;2022-08-25T14:07:26;34.40;62.60
19966;DHT22;10144;50.874;4.762;2022-08-25T14:10:18;34.30;63.40
19966;DHT22;10144;50.874;4.762;2022-08-25T14:15:43;34.10;66.50
19966;DHT22;10144;50.874;4.762;2022-08-25T14:18:27;34.10;66.30
19966;DHT22;10144;50.874;4.762;2022-08-25T14:21:07;33.90;65.50
19966;DHT22;10144;50.874;4.762;2022-08-25T14:23:36;33.90;64.40
19966;DHT22;10144;50.874;4.762;2022-08-25T14:26:05;33.90;65.00
19966;DHT22;10144;50.874;4.762;2022-08-25T14:28:31;34.00;65.70
19966;DHT22;10144;50.874;4.762;2022-08-25T14:31:05;34.20;65.70
19966;DHT22;10144;50.874;4.762;2022-08-25T14:33:37;34.30;65.60
19966;DHT22;10144;50.874;4.762;2022-08-25T14:36:06;34.20;65.30
19966;DHT22;10144;50.874;4.762;2022-08-25T14:38:35;34.00;65.00
19966;DHT22;10144;50.874;4.762;2022-08-25T14:41:06;34.00;65.60
19966;DHT22;10144;50.874;4.762;2022-08-25T14:43:32;33.90;65.90
19966;DHT22;10144;50.874;4.762;2022-08-25T14:46:04;33.70;65.70
19966;DHT22;10144;50.874;4.762;2022-08-25T14:48:50;33.60;67.80
19966;DHT22;10144;50.874;4.762;2022-08-25T14:51:22;33.60;68.10
19966;DHT22;10144;50.874;4.762;2022-08-25T14:54:02;33.50;66.60
19966;DHT22;10144;50.874;4.762;2022-08-25T14:56:36;33.50;67.80
19966;DHT22;10144;50.874;4.762;2022-08-25T15:08:50;32.90;68.10
19966;DHT22;10144;50.874;4.762;2022-08-25T15:11:35;32.60;68.00
19966;DHT22;10144;50.874;4.762;2022-08-25T15:14:04;32.60;69.30
19966;DHT22;10144;50.874;4.762;2022-08-25T15:16:49;32.70;67.80
19966;DHT22;10144;50.874;4.762;2022-08-25T15:19:20;32.90;67.20
19966;DHT22;10144;50.874;4.762;2022-08-25T15:21:48;32.80;66.80
19966;DHT22;10144;50.874;4.762;2022-08-25T15:24:18;32.80;67.00
19966;DHT22;10144;50.874;4.762;2022-08-25T15:26:56;32.80;67.80
19966;DHT22;10144;50.874;4.762;2022-08-25T15:29:27;32.80;69.00
19966;DHT22;10144;50.874;4.762;2022-08-25T15:31:58;32.90;68.90
19966;DHT22;10144;50.874;4.762;2022-08-25T15:34:33;32.90;72.90
19966;DHT22;10144;50.874;4.762;2022-08-25T15:37:08;32.80;75.70
19966;DHT22;10144;50.874;4.762;2022-08-25T15:40:01;32.80;77.60
19966;DHT22;10144;50.874;4.762;2022-08-25T15:42:29;32.80;78.40
19966;DHT22;10144;50.874;4.762;2022-08-25T15:44:55;32.90;78.70
19966;DHT22;10144;50.874;4.762;2022-08-25T15:53:48;32.80;79.80
19966;DHT22;10144;50.874;4.762;2022-08-25T15:59:36;32.80;80.50
19966;DHT22;10144;50.874;4.762;2022-08-25T16:05:24;32.60;81.00
19966;DHT22;10144;50.874;4.762;2022-08-25T16:07:50;32.50;80.80
19966;DHT22;10144;50.874;4.762;2022-08-25T16:13:37;32.50;81.80
19966;DHT22;10144;50.874;4.762;2022-08-25T16:16:09;32.40;82.50
19966;DHT22;10144;50.874;4.762;2022-08-25T16:18:35;32.40;82.30
19966;DHT22;10144;50.874;4.762;2022-08-25T16:24:28;32.50;81.40
19966;DHT22;10144;50.874;4.762;2022-08-25T16:30:30;32.00;91.90
19966;DHT22;10144;50.874;4.762;2022-08-25T16:36:23;31.20;94.40
19966;DHT22;10144;50.874;4.762;2022-08-25T16:42:11;30.60;96.40
19966;DHT22;10144;50.874;4.762;2022-08-25T16:45:00;30.50;97.40
19966;DHT22;10144;50.874;4.762;2022-08-25T16:50:48;30.50;98.90
19966;DHT22;10144;50.874;4.762;2022-08-25T16:56:38;30.10;99.90
19966;DHT22;10144;50.874;4.762;2022-08-25T16:59:22;30.10;99.90
19966;DHT22;10144;50.874;4.762;2022-08-25T17:05:03;29.80;99.90
19966;DHT22;10144;50.874;4.762;2022-08-25T17:07:41;29.80;99.90
19966;DHT22;10144;50.874;4.762;2022-08-25T17:10:32;29.50;99.90
19966;DHT22;10144;50.874;4.762;2022-08-25T17:13:02;29.30;99.90
19966;DHT22;10144;50.874;4.762;2022-08-25T17:15:29;29.30;99.90
19966;DHT22;10144;50.874;4.762;2022-08-25T17:18:03;29.30;99.90
19966;DHT22;10144;50.874;4.762;2022-08-25T17:21:09;29.10;99.90
19966;DHT22;10144;50.874;4.762;2022-08-25T17:24:12;28.90;99.90
19966;DHT22;10144;50.874;4.762;2022-08-25T17:26:40;29.10;99.90
19966;DHT22;10144;50.874;4.762;2022-08-25T17:32:20;28.60;99.90
19966;DHT22;10144;50.874;4.762;2022-08-25T17:38:08;28.50;99.90
19966;DHT22;10144;50.874;4.762;2022-08-25T17:46:49;28.20;99.90
19966;DHT22;10144;50.874;4.762;2022-08-25T17:49:16;28.00;99.90
19966;DHT22;10144;50.874;4.762;2022-08-25T17:51:43;28.00;99.90
19966;DHT22;10144;50.874;4.762;2022-08-25T17:54:09;28.00;99.90
19966;DHT22;10144;50.874;4.762;2022-08-25T17:56:37;27.90;99.90
19966;DHT22;10144;50.874;4.762;2022-08-25T17:59:03;27.90;99.90
19966;DHT22;10144;50.874;4.762;2022-08-25T18:01:36;27.70;99.90
19966;DHT22;10144;50.874;4.762;2022-08-25T18:04:02;27.70;99.90
19966;DHT22;10144;50.874;4.762;2022-08-25T18:06:37;27.70;99.90
19966;DHT22;10144;50.874;4.762;2022-08-25T18:09:09;27.50;99.90
19966;DHT22;10144;50.874;4.762;2022-08-25T18:11:50;27.40;99.90
19966;DHT22;10144;50.874;4.762;2022-08-25T18:17:39;27.10;99.90
19966;DHT22;10144;50.874;4.762;2022-08-25T18:20:10;27.10;99.90
19966;DHT22;10144;50.874;4.762;2022-08-25T18:22:54;27.00;99.90
19966;DHT22;10144;50.874;4.762;2022-08-25T18:25:24;26.90;99.90
19966;DHT22;10144;50.874;4.762;2022-08-25T18:37:57;26.50;99.90
19966;DHT22;10144;50.874;4.762;2022-08-25T18:41:16;26.40;99.90
19966;DHT22;10144;50.874;4.762;2022-08-25T18:53:36;25.90;99.90
19966;DHT22;10144;50.874;4.762;2022-08-25T18:59:24;25.50;99.90
19966;DHT22;10144;50.874;4.762;2022-08-25T19:08:49;25.20;99.90
19966;DHT22;10144;50.874;4.762;2022-08-25T19:11:17;25.10;99.90
19966;DHT22;10144;50.874;4.762;2022-08-25T19:13:50;25.10;99.90
19966;DHT22;10144;50.874;4.762;2022-08-25T19:16:31;24.90;99.90
19966;DHT22;10144;50.874;4.762;2022-08-25T19:19:16;24.90;99.90
19966;DHT22;10144;50.874;4.762;2022-08-25T19:21:56;24.80;99.90
19966;DHT22;10144;50.874;4.762;2022-08-25T19:27:45;24.50;99.90
19966;DHT22;10144;50.874;4.762;2022-08-25T19:33:34;24.10;99.90
19966;DHT22;10144;50.874;4.762;2022-08-25T19:39:38;23.90;99.90
19966;DHT22;10144;50.874;4.762;2022-08-25T19:45:26;23.80;99.90
19966;DHT22;10144;50.874;4.762;2022-08-25T20:08:06;23.10;99.90
19966;DHT22;10144;50.874;4.762;2022-08-25T20:13:54;23.00;99.90
19966;DHT22;10144;50.874;4.762;2022-08-25T20:16:37;23.00;99.90
19966;DHT22;10144;50.874;4.762;2022-08-25T20:19:12;23.00;99.90
19966;DHT22;10144;50.874;4.762;2022-08-25T20:25:07;23.00;99.90
19966;DHT22;10144;50.874;4.762;2022-08-25T20:27:37;23.00;99.90
19966;DHT22;10144;50.874;4.762;2022-08-25T20:30:37;22.80;99.90
19966;DHT22;10144;50.874;4.762;2022-08-25T20:33:21;22.80;99.90
19966;DHT22;10144;50.874;4.762;2022-08-25T20:36:02;22.90;99.90
19966;DHT22;10144;50.874;4.762;2022-08-25T20:38:31;22.80;99.90
19966;DHT22;10144;50.874;4.762;2022-08-25T20:40:59;22.90;99.90
19966;DHT22;10144;50.874;4.762;2022-08-25T20:43:41;22.90;99.90
19966;DHT22;10144;50.874;4.762;2022-08-25T20:46:10;22.90;99.90
19966;DHT22;10144;50.874;4.762;2022-08-25T20:48:48;22.80;99.90
19966;DHT22;10144;50.874;4.762;2022-08-25T20:54:44;22.80;99.90
19966;DHT22;10144;50.874;4.762;2022-08-25T20:57:10;22.70;99.90
19966;DHT22;10144;50.874;4.762;2022-08-25T21:02:58;22.70;99.90
19966;DHT22;10144;50.874;4.762;2022-08-25T21:05:31;22.70;99.90
19966;DHT22;10144;50.874;4.762;2022-08-25T21:08:17;22.70;99.90
19966;DHT22;10144;50.874;4.762;2022-08-25T21:11:13;22.70;99.90
19966;DHT22;10144;50.874;4.762;2022-08-25T21:17:28;22.60;99.90
19966;DHT22;10144;50.874;4.762;2022-08-25T21:23:16;22.60;99.90
19966;DHT22;10144;50.874;4.762;2022-08-25T21:26:01;22.60;99.90
19966;DHT22;10144;50.874;4.762;2022-08-25T21:28:41;22.50;99.90
19966;DHT22;10144;50.874;4.762;2022-08-25T21:31:09;22.60;99.90
19966;DHT22;10144;50.874;4.762;2022-08-25T21:33:54;22.40;99.90
19966;DHT22;10144;50.874;4.762;2022-08-25T21:36:24;22.40;99.90
19966;DHT22;10144;50.874;4.762;2022-08-25T21:39:08;22.40;99.90
19966;DHT22;10144;50.874;4.762;2022-08-25T21:41:48;22.40;99.90
19966;DHT22;10144;50.874;4.762;2022-08-25T21:44:17;22.30;99.90
19966;DHT22;10144;50.874;4.762;2022-08-25T21:46:49;22.40;99.90
19966;DHT22;10144;50.874;4.762;2022-08-25T21:49:20;22.30;99.90
19966;DHT22;10144;50.874;4.762;2022-08-25T21:51:59;22.40;99.90
19966;DHT22;10144;50.874;4.762;2022-08-25T21:54:28;22.20;99.90
19966;DHT22;10144;50.874;4.762;2022-08-25T22:00:22;22.20;99.90
19966;DHT22;10144;50.874;4.762;2022-08-25T22:03:02;22.10;99.90
19966;DHT22;10144;50.874;4.762;2022-08-25T22:05:30;22.20;99.90
19966;DHT22;10144;50.874;4.762;2022-08-25T22:07:55;22.20;99.90
19966;DHT22;10144;50.874;4.762;2022-08-25T22:10:40;22.20;99.90
19966;DHT22;10144;50.874;4.762;2022-08-25T22:13:38;22.20;99.90
19966;DHT22;10144;50.874;4.762;2022-08-25T22:16:10;22.20;99.90
19966;DHT22;10144;50.874;4.762;2022-08-25T22:18:39;22.20;99.90
19966;DHT22;10144;50.874;4.762;2022-08-25T22:21:06;22.10;99.90
19966;DHT22;10144;50.874;4.762;2022-08-25T22:23:32;22.10;99.90
19966;DHT22;10144;50.874;4.762;2022-08-25T22:26:29;22.10;99.90
19966;DHT22;10144;50.874;4.762;2022-08-25T22:29:00;22.10;99.90
19966;DHT22;10144;50.874;4.762;2022-08-25T22:31:33;22.00;99.90
19966;DHT22;10144;50.874;4.762;2022-08-25T22:34:21;22.10;99.90
19966;DHT22;10144;50.874;4.762;2022-08-25T22:36:54;22.00;99.90
19966;DHT22;10144;50.874;4.762;2022-08-25T22:39:31;21.90;99.90
19966;DHT22;10144;50.874;4.762;2022-08-25T22:41:58;21.90;99.90
19966;DHT22;10144;50.874;4.762;2022-08-25T22:44:25;21.80;99.90
19966;DHT22;10144;50.874;4.762;2022-08-25T22:47:01;21.90;99.90
19966;DHT22;10144;50.874;4.762;2022-08-25T22:49:38;21.80;99.90
19966;DHT22;10144;50.874;4.762;2022-08-25T22:52:11;21.80;99.90
19966;DHT22;10144;50.874;4.762;2022-08-25T22:54:37;21.80;99.90
19966;DHT22;10144;50.874;4.762;2022-08-25T22:57:27;21.80;99.90
19966;DHT22;10144;50.874;4.762;2022-08-25T23:00:07;21.70;99.90
19966;DHT22;10144;50.874;4.762;2022-08-25T23:02:34;21.70;99.90
19966;DHT22;10144;50.874;4.762;2022-08-25T23:05:01;21.70;99.90
19966;DHT22;10144;50.874;4.762;2022-08-25T23:07:35;21.80;99.90
19966;DHT22;10144;50.874;4.762;2022-08-25T23:10:11;21.80;99.90
19966;DHT22;10144;50.874;4.762;2022-08-25T23:12:38;21.70;99.90
19966;DHT22;10144;50.874;4.762;2022-08-25T23:15:11;21.70;99.90
19966;DHT22;10144;50.874;4.762;2022-08-25T23:17:40;21.60;99.90
19966;DHT22;10144;50.874;4.762;2022-08-25T23:20:07;21.60;99.90
19966;DHT22;10144;50.874;4.762;2022-08-25T23:22:54;21.60;99.90
19966;DHT22;10144;50.874;4.762;2022-08-25T23:25:26;21.60;99.90
19966;DHT22;10144;50.874;4.762;2022-08-25T23:27:53;21.50;99.90
19966;DHT22;10144;50.874;4.762;2022-08-25T23:30:19;21.60;99.90
19966;DHT22;10144;50.874;4.762;2022-08-25T23:32:45;21.60;99.90
19966;DHT22;10144;50.874;4.762;2022-08-25T23:35:12;21.60;99.90
19966;DHT22;10144;50.874;4.762;2022-08-25T23:37:48;21.70;99.90
19966;DHT22;10144;50.874;4.762;2022-08-25T23:40:18;21.70;99.90
19966;DHT22;10144;50.874;4.762;2022-08-25T23:42:49;21.70;99.90
19966;DHT22;10144;50.874;4.762;2022-08-25T23:45:22;21.60;99.90
19966;DHT22;10144;50.874;4.762;2022-08-25T23:48:03;21.60;99.90
19966;DHT22;10144;50.874;4.762;2022-08-25T23:50:41;21.50;99.90
19966;DHT22;10144;50.874;4.762;2022-08-25T23:53:12;21.40;99.90
19966;DHT22;10144;50.874;4.762;2022-08-25T23:55:38;21.50;99.90
19966;DHT22;10144;50.874;4.762;2022-08-25T23:58:38;21.50;99.90
